sensor_id;sensor_type;location;lat;lon;timestamp;P1;durP1;ratioP1;P2;durP2;ratioP2
60665;SDS011;59128;44.642;21.188;2023-03-03T00:02:02;44.90;;;31.23;;
60665;SDS011;59128;44.642;21.188;2023-03-03T00:04:28;41.58;;;28.58;;
60665;SDS011;59128;44.642;21.188;2023-03-03T00:06:54;47.35;;;32.78;;
60665;SDS011;59128;44.642;21.188;2023-03-03T00:09:19;45.13;;;31.98;;
60665;SDS011;59128;44.642;21.188;2023-03-03T00:11:46;58.55;;;39.72;;
60665;SDS011;59128;44.642;21.188;2023-03-03T00:14:31;43.87;;;30.50;;
60665;SDS011;59128;44.642;21.188;2023-03-03T00:16:59;52.33;;;35.83;;
60665;SDS011;59128;44.642;21.188;2023-03-03T00:19:25;55.10;;;38.20;;
60665;SDS011;59128;44.642;21.188;2023-03-03T00:21:52;81.60;;;54.33;;
60665;SDS011;59128;44.642;21.188;2023-03-03T00:24:22;61.60;;;42.78;;
60665;SDS011;59128;44.642;21.188;2023-03-03T00:26:53;46.08;;;32.95;;
60665;SDS011;59128;44.642;21.188;2023-03-03T00:31:51;47.67;;;33.67;;
60665;SDS011;59128;44.642;21.188;2023-03-03T00:36:44;51.88;;;36.50;;
60665;SDS011;59128;44.642;21.188;2023-03-03T00:41:56;47.72;;;32.42;;
60665;SDS011;59128;44.642;21.188;2023-03-03T00:47:25;50.15;;;35.10;;
60665;SDS011;59128;44.642;21.188;2023-03-03T00:49:55;47.45;;;33.58;;
60665;SDS011;59128;44.642;21.188;2023-03-03T00:52:21;46.95;;;32.60;;
60665;SDS011;59128;44.642;21.188;2023-03-03T00:54:49;45.43;;;31.70;;
60665;SDS011;59128;44.642;21.188;2023-03-03T00:57:15;47.67;;;33.15;;
60665;SDS011;59128;44.642;21.188;2023-03-03T00:59:41;46.17;;;32.08;;
60665;SDS011;59128;44.642;21.188;2023-03-03T01:02:07;45.13;;;31.73;;
60665;SDS011;59128;44.642;21.188;2023-03-03T01:04:33;45.47;;;31.15;;
60665;SDS011;59128;44.642;21.188;2023-03-03T01:06:59;50.58;;;34.72;;
60665;SDS011;59128;44.642;21.188;2023-03-03T01:09:25;48.45;;;33.38;;
60665;SDS011;59128;44.642;21.188;2023-03-03T01:11:51;47.67;;;32.80;;
60665;SDS011;59128;44.642;21.188;2023-03-03T01:14:17;51.42;;;35.00;;
60665;SDS011;59128;44.642;21.188;2023-03-03T01:16:43;52.72;;;35.63;;
60665;SDS011;59128;44.642;21.188;2023-03-03T01:19:09;55.03;;;35.53;;
60665;SDS011;59128;44.642;21.188;2023-03-03T01:21:35;50.55;;;33.78;;
60665;SDS011;59128;44.642;21.188;2023-03-03T01:24:01;48.13;;;32.10;;
60665;SDS011;59128;44.642;21.188;2023-03-03T01:26:27;50.83;;;32.97;;
60665;SDS011;59128;44.642;21.188;2023-03-03T01:28:53;48.40;;;33.43;;
60665;SDS011;59128;44.642;21.188;2023-03-03T01:31:19;49.88;;;33.83;;
60665;SDS011;59128;44.642;21.188;2023-03-03T01:33:45;50.13;;;33.10;;
60665;SDS011;59128;44.642;21.188;2023-03-03T01:36:11;47.35;;;32.22;;
60665;SDS011;59128;44.642;21.188;2023-03-03T01:38:37;43.78;;;30.75;;
60665;SDS011;59128;44.642;21.188;2023-03-03T01:41:03;46.45;;;31.80;;
60665;SDS011;59128;44.642;21.188;2023-03-03T01:43:30;45.63;;;31.95;;
60665;SDS011;59128;44.642;21.188;2023-03-03T01:48:40;45.50;;;31.08;;
60665;SDS011;59128;44.642;21.188;2023-03-03T01:51:20;46.70;;;31.40;;
60665;SDS011;59128;44.642;21.188;2023-03-03T01:53:59;44.67;;;30.77;;
60665;SDS011;59128;44.642;21.188;2023-03-03T01:56:25;48.92;;;31.60;;
60665;SDS011;59128;44.642;21.188;2023-03-03T01:58:52;45.50;;;31.65;;
60665;SDS011;59128;44.642;21.188;2023-03-03T02:01:24;48.13;;;32.53;;
60665;SDS011;59128;44.642;21.188;2023-03-03T02:03:51;44.47;;;31.30;;
60665;SDS011;59128;44.642;21.188;2023-03-03T02:06:24;46.58;;;32.13;;
60665;SDS011;59128;44.642;21.188;2023-03-03T02:08:52;46.10;;;31.40;;
60665;SDS011;59128;44.642;21.188;2023-03-03T02:11:20;48.00;;;32.33;;
60665;SDS011;59128;44.642;21.188;2023-03-03T02:13:46;45.17;;;30.77;;
60665;SDS011;59128;44.642;21.188;2023-03-03T02:16:12;45.75;;;31.48;;
60665;SDS011;59128;44.642;21.188;2023-03-03T02:18:38;47.17;;;31.93;;
60665;SDS011;59128;44.642;21.188;2023-03-03T02:26:22;44.17;;;30.75;;
60665;SDS011;59128;44.642;21.188;2023-03-03T02:28:49;43.90;;;30.55;;
60665;SDS011;59128;44.642;21.188;2023-03-03T02:31:17;45.05;;;31.40;;
60665;SDS011;59128;44.642;21.188;2023-03-03T02:33:48;43.10;;;30.55;;
60665;SDS011;59128;44.642;21.188;2023-03-03T02:36:16;42.53;;;30.02;;
60665;SDS011;59128;44.642;21.188;2023-03-03T02:46:31;40.58;;;29.45;;
60665;SDS011;59128;44.642;21.188;2023-03-03T02:48:57;41.45;;;29.77;;
60665;SDS011;59128;44.642;21.188;2023-03-03T02:51:23;43.38;;;30.83;;
60665;SDS011;59128;44.642;21.188;2023-03-03T02:53:49;43.17;;;30.10;;
60665;SDS011;59128;44.642;21.188;2023-03-03T02:56:15;41.10;;;29.98;;
60665;SDS011;59128;44.642;21.188;2023-03-03T02:58:41;42.78;;;30.67;;
60665;SDS011;59128;44.642;21.188;2023-03-03T03:01:07;42.72;;;30.60;;
60665;SDS011;59128;44.642;21.188;2023-03-03T03:03:33;43.88;;;31.35;;
60665;SDS011;59128;44.642;21.188;2023-03-03T03:05:59;48.03;;;31.47;;
60665;SDS011;59128;44.642;21.188;2023-03-03T03:08:25;54.55;;;34.72;;
60665;SDS011;59128;44.642;21.188;2023-03-03T03:10:51;49.72;;;32.70;;
60665;SDS011;59128;44.642;21.188;2023-03-03T03:13:17;45.70;;;31.55;;
60665;SDS011;59128;44.642;21.188;2023-03-03T03:15:46;44.33;;;30.20;;
60665;SDS011;59128;44.642;21.188;2023-03-03T03:18:13;39.70;;;28.75;;
60665;SDS011;59128;44.642;21.188;2023-03-03T03:20:39;40.92;;;29.05;;
60665;SDS011;59128;44.642;21.188;2023-03-03T03:23:05;40.95;;;29.88;;
60665;SDS011;59128;44.642;21.188;2023-03-03T03:25:31;44.30;;;30.20;;
60665;SDS011;59128;44.642;21.188;2023-03-03T03:27:57;41.63;;;29.83;;
60665;SDS011;59128;44.642;21.188;2023-03-03T03:30:23;42.97;;;30.00;;
60665;SDS011;59128;44.642;21.188;2023-03-03T03:32:50;47.97;;;33.75;;
60665;SDS011;59128;44.642;21.188;2023-03-03T03:35:16;45.78;;;33.15;;
60665;SDS011;59128;44.642;21.188;2023-03-03T03:37:42;43.53;;;31.73;;
60665;SDS011;59128;44.642;21.188;2023-03-03T03:40:09;42.20;;;30.00;;
60665;SDS011;59128;44.642;21.188;2023-03-03T03:42:35;45.00;;;31.07;;
60665;SDS011;59128;44.642;21.188;2023-03-03T03:45:02;42.50;;;31.25;;
60665;SDS011;59128;44.642;21.188;2023-03-03T03:47:28;44.75;;;30.90;;
60665;SDS011;59128;44.642;21.188;2023-03-03T03:49:54;47.45;;;32.17;;
60665;SDS011;59128;44.642;21.188;2023-03-03T03:52:20;43.53;;;30.27;;
60665;SDS011;59128;44.642;21.188;2023-03-03T03:54:46;41.60;;;30.50;;
60665;SDS011;59128;44.642;21.188;2023-03-03T03:57:12;46.05;;;32.90;;
60665;SDS011;59128;44.642;21.188;2023-03-03T03:59:38;46.67;;;31.95;;
60665;SDS011;59128;44.642;21.188;2023-03-03T04:02:04;45.65;;;32.95;;
60665;SDS011;59128;44.642;21.188;2023-03-03T04:04:30;45.80;;;32.70;;
60665;SDS011;59128;44.642;21.188;2023-03-03T04:06:56;45.25;;;31.33;;
60665;SDS011;59128;44.642;21.188;2023-03-03T04:09:23;46.72;;;32.50;;
60665;SDS011;59128;44.642;21.188;2023-03-03T04:11:49;51.67;;;35.38;;
60665;SDS011;59128;44.642;21.188;2023-03-03T04:14:15;53.58;;;36.08;;
60665;SDS011;59128;44.642;21.188;2023-03-03T04:16:41;54.33;;;36.17;;
60665;SDS011;59128;44.642;21.188;2023-03-03T04:19:07;57.38;;;37.72;;
60665;SDS011;59128;44.642;21.188;2023-03-03T04:21:33;50.93;;;34.10;;
60665;SDS011;59128;44.642;21.188;2023-03-03T04:23:59;49.83;;;34.63;;
60665;SDS011;59128;44.642;21.188;2023-03-03T04:26:25;53.28;;;35.95;;
60665;SDS011;59128;44.642;21.188;2023-03-03T04:28:51;64.68;;;41.67;;
60665;SDS011;59128;44.642;21.188;2023-03-03T04:31:18;61.83;;;39.73;;
60665;SDS011;59128;44.642;21.188;2023-03-03T04:33:44;51.27;;;34.67;;
60665;SDS011;59128;44.642;21.188;2023-03-03T04:36:10;66.78;;;42.38;;
60665;SDS011;59128;44.642;21.188;2023-03-03T04:38:36;65.20;;;40.97;;
60665;SDS011;59128;44.642;21.188;2023-03-03T04:41:02;65.82;;;41.05;;
60665;SDS011;59128;44.642;21.188;2023-03-03T04:43:28;63.15;;;40.72;;
60665;SDS011;59128;44.642;21.188;2023-03-03T04:45:54;54.53;;;36.13;;
60665;SDS011;59128;44.642;21.188;2023-03-03T04:48:20;57.45;;;37.38;;
60665;SDS011;59128;44.642;21.188;2023-03-03T04:50:46;57.30;;;37.57;;
60665;SDS011;59128;44.642;21.188;2023-03-03T04:53:12;65.95;;;41.42;;
60665;SDS011;59128;44.642;21.188;2023-03-03T04:55:38;61.17;;;40.08;;
60665;SDS011;59128;44.642;21.188;2023-03-03T04:58:04;62.45;;;40.28;;
60665;SDS011;59128;44.642;21.188;2023-03-03T05:00:30;60.15;;;39.20;;
60665;SDS011;59128;44.642;21.188;2023-03-03T05:02:56;59.08;;;39.85;;
60665;SDS011;59128;44.642;21.188;2023-03-03T05:05:23;58.13;;;39.67;;
60665;SDS011;59128;44.642;21.188;2023-03-03T05:07:49;63.38;;;41.58;;
60665;SDS011;59128;44.642;21.188;2023-03-03T05:10:15;63.70;;;41.47;;
60665;SDS011;59128;44.642;21.188;2023-03-03T05:12:42;65.00;;;41.47;;
60665;SDS011;59128;44.642;21.188;2023-03-03T05:15:08;57.90;;;37.78;;
60665;SDS011;59128;44.642;21.188;2023-03-03T05:17:34;55.20;;;38.13;;
60665;SDS011;59128;44.642;21.188;2023-03-03T05:20:01;58.38;;;38.83;;
60665;SDS011;59128;44.642;21.188;2023-03-03T05:22:27;56.95;;;40.13;;
60665;SDS011;59128;44.642;21.188;2023-03-03T05:24:53;70.50;;;44.78;;
60665;SDS011;59128;44.642;21.188;2023-03-03T05:27:19;72.95;;;46.25;;
60665;SDS011;59128;44.642;21.188;2023-03-03T05:29:45;55.20;;;38.13;;
60665;SDS011;59128;44.642;21.188;2023-03-03T05:32:11;58.42;;;41.25;;
60665;SDS011;59128;44.642;21.188;2023-03-03T05:34:37;67.90;;;45.47;;
60665;SDS011;59128;44.642;21.188;2023-03-03T05:37:03;65.40;;;43.13;;
60665;SDS011;59128;44.642;21.188;2023-03-03T05:39:30;49.30;;;35.20;;
60665;SDS011;59128;44.642;21.188;2023-03-03T05:41:56;44.22;;;32.28;;
60665;SDS011;59128;44.642;21.188;2023-03-03T05:44:24;45.90;;;32.72;;
60665;SDS011;59128;44.642;21.188;2023-03-03T05:46:50;49.30;;;35.43;;
60665;SDS011;59128;44.642;21.188;2023-03-03T05:49:16;43.70;;;31.40;;
60665;SDS011;59128;44.642;21.188;2023-03-03T05:51:42;45.70;;;33.03;;
60665;SDS011;59128;44.642;21.188;2023-03-03T05:54:08;45.53;;;33.38;;
60665;SDS011;59128;44.642;21.188;2023-03-03T05:56:34;42.72;;;30.98;;
60665;SDS011;59128;44.642;21.188;2023-03-03T05:59:00;42.80;;;31.27;;
60665;SDS011;59128;44.642;21.188;2023-03-03T06:01:26;43.08;;;30.63;;
60665;SDS011;59128;44.642;21.188;2023-03-03T06:03:53;44.28;;;32.85;;
60665;SDS011;59128;44.642;21.188;2023-03-03T06:06:19;49.30;;;35.30;;
60665;SDS011;59128;44.642;21.188;2023-03-03T06:08:45;53.42;;;39.00;;
60665;SDS011;59128;44.642;21.188;2023-03-03T06:11:11;49.13;;;35.43;;
60665;SDS011;59128;44.642;21.188;2023-03-03T06:13:37;44.00;;;31.65;;
60665;SDS011;59128;44.642;21.188;2023-03-03T06:16:05;46.20;;;35.55;;
60665;SDS011;59128;44.642;21.188;2023-03-03T06:18:32;48.63;;;36.50;;
60665;SDS011;59128;44.642;21.188;2023-03-03T06:20:58;49.33;;;36.58;;
60665;SDS011;59128;44.642;21.188;2023-03-03T06:23:23;47.72;;;35.22;;
60665;SDS011;59128;44.642;21.188;2023-03-03T06:25:49;50.50;;;36.37;;
60665;SDS011;59128;44.642;21.188;2023-03-03T06:28:16;63.20;;;43.63;;
60665;SDS011;59128;44.642;21.188;2023-03-03T06:30:42;65.10;;;43.67;;
60665;SDS011;59128;44.642;21.188;2023-03-03T06:33:08;42.38;;;31.40;;
60665;SDS011;59128;44.642;21.188;2023-03-03T06:35:34;43.20;;;31.58;;
60665;SDS011;59128;44.642;21.188;2023-03-03T06:38:01;55.40;;;38.23;;
60665;SDS011;59128;44.642;21.188;2023-03-03T06:40:27;47.78;;;33.08;;
60665;SDS011;59128;44.642;21.188;2023-03-03T06:42:53;46.15;;;31.92;;
60665;SDS011;59128;44.642;21.188;2023-03-03T06:45:19;51.45;;;35.30;;
60665;SDS011;59128;44.642;21.188;2023-03-03T06:47:45;61.40;;;43.53;;
60665;SDS011;59128;44.642;21.188;2023-03-03T06:50:11;42.92;;;30.90;;
60665;SDS011;59128;44.642;21.188;2023-03-03T06:52:37;43.67;;;31.17;;
60665;SDS011;59128;44.642;21.188;2023-03-03T06:55:11;64.70;;;46.15;;
60665;SDS011;59128;44.642;21.188;2023-03-03T06:57:37;52.50;;;41.05;;
60665;SDS011;59128;44.642;21.188;2023-03-03T07:02:37;48.35;;;37.90;;
60665;SDS011;59128;44.642;21.188;2023-03-03T07:05:05;46.67;;;35.63;;
60665;SDS011;59128;44.642;21.188;2023-03-03T07:07:31;47.70;;;33.72;;
60665;SDS011;59128;44.642;21.188;2023-03-03T07:09:57;44.85;;;33.15;;
60665;SDS011;59128;44.642;21.188;2023-03-03T07:12:25;37.20;;;28.40;;
60665;SDS011;59128;44.642;21.188;2023-03-03T07:14:52;41.25;;;31.40;;
60665;SDS011;59128;44.642;21.188;2023-03-03T07:17:21;45.58;;;34.28;;
60665;SDS011;59128;44.642;21.188;2023-03-03T07:19:48;42.38;;;32.80;;
60665;SDS011;59128;44.642;21.188;2023-03-03T07:22:15;46.13;;;35.13;;
60665;SDS011;59128;44.642;21.188;2023-03-03T07:24:42;43.03;;;32.35;;
60665;SDS011;59128;44.642;21.188;2023-03-03T07:29:35;42.45;;;31.38;;
60665;SDS011;59128;44.642;21.188;2023-03-03T07:32:05;43.63;;;32.35;;
60665;SDS011;59128;44.642;21.188;2023-03-03T07:34:39;45.15;;;34.13;;
60665;SDS011;59128;44.642;21.188;2023-03-03T07:42:47;36.22;;;27.45;;
60665;SDS011;59128;44.642;21.188;2023-03-03T07:45:29;38.90;;;29.50;;
60665;SDS011;59128;44.642;21.188;2023-03-03T07:48:00;36.10;;;28.08;;
60665;SDS011;59128;44.642;21.188;2023-03-03T07:50:29;40.42;;;30.67;;
60665;SDS011;59128;44.642;21.188;2023-03-03T07:52:56;82.38;;;51.88;;
60665;SDS011;59128;44.642;21.188;2023-03-03T07:55:33;45.85;;;33.53;;
60665;SDS011;59128;44.642;21.188;2023-03-03T07:58:21;37.08;;;27.83;;
60665;SDS011;59128;44.642;21.188;2023-03-03T08:03:27;38.35;;;30.42;;
60665;SDS011;59128;44.642;21.188;2023-03-03T08:05:53;38.87;;;29.50;;
60665;SDS011;59128;44.642;21.188;2023-03-03T08:08:27;139.70;;;87.60;;
60665;SDS011;59128;44.642;21.188;2023-03-03T08:10:54;62.25;;;46.38;;
60665;SDS011;59128;44.642;21.188;2023-03-03T08:13:28;67.60;;;51.80;;
60665;SDS011;59128;44.642;21.188;2023-03-03T08:16:01;42.53;;;33.25;;
60665;SDS011;59128;44.642;21.188;2023-03-03T08:21:10;26.80;;;21.27;;
60665;SDS011;59128;44.642;21.188;2023-03-03T08:23:37;28.27;;;22.25;;
60665;SDS011;59128;44.642;21.188;2023-03-03T08:26:04;25.52;;;21.02;;
60665;SDS011;59128;44.642;21.188;2023-03-03T08:28:30;24.40;;;20.20;;
60665;SDS011;59128;44.642;21.188;2023-03-03T08:30:56;31.77;;;24.98;;
60665;SDS011;59128;44.642;21.188;2023-03-03T08:33:22;36.53;;;28.27;;
60665;SDS011;59128;44.642;21.188;2023-03-03T08:35:48;24.52;;;20.25;;
60665;SDS011;59128;44.642;21.188;2023-03-03T08:38:15;25.70;;;20.70;;
60665;SDS011;59128;44.642;21.188;2023-03-03T08:40:41;33.33;;;26.83;;
60665;SDS011;59128;44.642;21.188;2023-03-03T08:43:08;39.83;;;32.80;;
60665;SDS011;59128;44.642;21.188;2023-03-03T08:45:34;25.75;;;20.98;;
60665;SDS011;59128;44.642;21.188;2023-03-03T08:48:00;29.33;;;23.45;;
60665;SDS011;59128;44.642;21.188;2023-03-03T08:50:27;27.90;;;22.73;;
60665;SDS011;59128;44.642;21.188;2023-03-03T08:52:53;28.10;;;22.23;;
60665;SDS011;59128;44.642;21.188;2023-03-03T08:55:19;27.90;;;21.35;;
60665;SDS011;59128;44.642;21.188;2023-03-03T08:57:45;30.75;;;24.77;;
60665;SDS011;59128;44.642;21.188;2023-03-03T09:00:13;36.03;;;27.02;;
60665;SDS011;59128;44.642;21.188;2023-03-03T09:02:39;33.13;;;26.52;;
60665;SDS011;59128;44.642;21.188;2023-03-03T09:05:06;32.58;;;26.20;;
60665;SDS011;59128;44.642;21.188;2023-03-03T09:07:32;33.17;;;25.67;;
60665;SDS011;59128;44.642;21.188;2023-03-03T09:09:58;34.15;;;27.10;;
60665;SDS011;59128;44.642;21.188;2023-03-03T09:12:28;38.30;;;29.73;;
60665;SDS011;59128;44.642;21.188;2023-03-03T09:14:55;39.90;;;31.53;;
60665;SDS011;59128;44.642;21.188;2023-03-03T09:19:54;39.17;;;31.10;;
60665;SDS011;59128;44.642;21.188;2023-03-03T09:22:23;36.13;;;28.85;;
60665;SDS011;59128;44.642;21.188;2023-03-03T09:24:52;33.00;;;26.05;;
60665;SDS011;59128;44.642;21.188;2023-03-03T09:27:22;42.78;;;33.13;;
60665;SDS011;59128;44.642;21.188;2023-03-03T09:29:50;32.03;;;26.30;;
60665;SDS011;59128;44.642;21.188;2023-03-03T09:32:35;30.55;;;24.83;;
60665;SDS011;59128;44.642;21.188;2023-03-03T09:37:51;79.50;;;70.97;;
60665;SDS011;59128;44.642;21.188;2023-03-03T09:43:08;38.50;;;30.00;;
60665;SDS011;59128;44.642;21.188;2023-03-03T09:45:47;33.03;;;25.17;;
60665;SDS011;59128;44.642;21.188;2023-03-03T09:58:48;25.13;;;20.50;;
60665;SDS011;59128;44.642;21.188;2023-03-03T10:06:48;28.73;;;23.20;;
60665;SDS011;59128;44.642;21.188;2023-03-03T10:17:41;23.15;;;14.80;;
60665;SDS011;59128;44.642;21.188;2023-03-03T10:25:25;16.77;;;13.65;;
60665;SDS011;59128;44.642;21.188;2023-03-03T10:28:12;14.80;;;12.82;;
60665;SDS011;59128;44.642;21.188;2023-03-03T10:38:59;14.55;;;11.23;;
60665;SDS011;59128;44.642;21.188;2023-03-03T10:44:46;13.15;;;11.52;;
60665;SDS011;59128;44.642;21.188;2023-03-03T10:57:25;15.27;;;11.55;;
60665;SDS011;59128;44.642;21.188;2023-03-03T11:02:34;14.32;;;11.77;;
60665;SDS011;59128;44.642;21.188;2023-03-03T11:31:36;13.18;;;11.15;;
60665;SDS011;59128;44.642;21.188;2023-03-03T11:34:11;16.15;;;14.07;;
60665;SDS011;59128;44.642;21.188;2023-03-03T11:36:44;16.67;;;13.05;;
60665;SDS011;59128;44.642;21.188;2023-03-03T11:39:17;14.15;;;11.77;;
60665;SDS011;59128;44.642;21.188;2023-03-03T11:44:39;13.45;;;11.55;;
60665;SDS011;59128;44.642;21.188;2023-03-03T11:47:14;13.55;;;11.85;;
60665;SDS011;59128;44.642;21.188;2023-03-03T11:49:46;14.52;;;12.50;;
60665;SDS011;59128;44.642;21.188;2023-03-03T11:54:54;15.60;;;13.10;;
60665;SDS011;59128;44.642;21.188;2023-03-03T11:57:28;13.70;;;12.25;;
60665;SDS011;59128;44.642;21.188;2023-03-03T12:02:27;17.00;;;13.30;;
60665;SDS011;59128;44.642;21.188;2023-03-03T12:12:38;14.57;;;11.90;;
60665;SDS011;59128;44.642;21.188;2023-03-03T12:17:38;16.42;;;12.52;;
60665;SDS011;59128;44.642;21.188;2023-03-03T12:25:32;15.77;;;12.77;;
60665;SDS011;59128;44.642;21.188;2023-03-03T12:30:35;15.70;;;13.68;;
60665;SDS011;59128;44.642;21.188;2023-03-03T12:40:34;16.48;;;14.50;;
60665;SDS011;59128;44.642;21.188;2023-03-03T12:47:54;18.02;;;15.57;;
60665;SDS011;59128;44.642;21.188;2023-03-03T12:52:59;17.23;;;14.27;;
60665;SDS011;59128;44.642;21.188;2023-03-03T13:03:20;18.73;;;14.23;;
60665;SDS011;59128;44.642;21.188;2023-03-03T13:05:53;16.33;;;13.48;;
60665;SDS011;59128;44.642;21.188;2023-03-03T13:08:25;16.80;;;13.63;;
60665;SDS011;59128;44.642;21.188;2023-03-03T13:11:16;15.38;;;12.95;;
60665;SDS011;59128;44.642;21.188;2023-03-03T13:16:19;17.05;;;12.82;;
60665;SDS011;59128;44.642;21.188;2023-03-03T13:23:57;16.67;;;13.38;;
60665;SDS011;59128;44.642;21.188;2023-03-03T13:26:42;14.73;;;12.50;;
60665;SDS011;59128;44.642;21.188;2023-03-03T13:29:19;13.38;;;11.73;;
60665;SDS011;59128;44.642;21.188;2023-03-03T13:31:48;13.85;;;11.82;;
60665;SDS011;59128;44.642;21.188;2023-03-03T13:34:25;13.20;;;11.02;;
60665;SDS011;59128;44.642;21.188;2023-03-03T13:37:03;14.85;;;11.20;;
60665;SDS011;59128;44.642;21.188;2023-03-03T13:39:33;15.45;;;13.00;;
60665;SDS011;59128;44.642;21.188;2023-03-03T13:44:39;13.47;;;11.43;;
60665;SDS011;59128;44.642;21.188;2023-03-03T13:49:42;17.13;;;12.10;;
60665;SDS011;59128;44.642;21.188;2023-03-03T13:52:19;15.27;;;12.73;;
60665;SDS011;59128;44.642;21.188;2023-03-03T13:57:29;15.90;;;12.43;;
60665;SDS011;59128;44.642;21.188;2023-03-03T14:07:55;14.40;;;12.32;;
60665;SDS011;59128;44.642;21.188;2023-03-03T14:16:01;14.70;;;12.82;;
60665;SDS011;59128;44.642;21.188;2023-03-03T14:20:52;17.52;;;14.52;;
60665;SDS011;59128;44.642;21.188;2023-03-03T14:23:26;16.70;;;13.25;;
60665;SDS011;59128;44.642;21.188;2023-03-03T14:28:23;18.08;;;16.10;;
60665;SDS011;59128;44.642;21.188;2023-03-03T14:30:52;26.05;;;21.13;;
60665;SDS011;59128;44.642;21.188;2023-03-03T14:33:20;23.08;;;19.05;;
60665;SDS011;59128;44.642;21.188;2023-03-03T14:35:51;20.67;;;16.85;;
60665;SDS011;59128;44.642;21.188;2023-03-03T14:41:02;17.33;;;14.60;;
60665;SDS011;59128;44.642;21.188;2023-03-03T14:43:33;23.48;;;19.83;;
60665;SDS011;59128;44.642;21.188;2023-03-03T14:46:21;36.58;;;28.35;;
60665;SDS011;59128;44.642;21.188;2023-03-03T14:48:58;27.77;;;22.27;;
60665;SDS011;59128;44.642;21.188;2023-03-03T14:51:38;21.20;;;17.55;;
60665;SDS011;59128;44.642;21.188;2023-03-03T14:54:24;20.80;;;15.82;;
60665;SDS011;59128;44.642;21.188;2023-03-03T14:56:55;25.10;;;22.30;;
60665;SDS011;59128;44.642;21.188;2023-03-03T14:59:22;27.58;;;23.48;;
60665;SDS011;59128;44.642;21.188;2023-03-03T15:02:04;25.00;;;21.25;;
60665;SDS011;59128;44.642;21.188;2023-03-03T15:04:33;23.13;;;19.88;;
60665;SDS011;59128;44.642;21.188;2023-03-03T15:06:59;26.60;;;20.95;;
60665;SDS011;59128;44.642;21.188;2023-03-03T15:09:40;25.47;;;19.60;;
60665;SDS011;59128;44.642;21.188;2023-03-03T15:20:08;24.05;;;18.60;;
60665;SDS011;59128;44.642;21.188;2023-03-03T15:25:14;24.53;;;18.63;;
60665;SDS011;59128;44.642;21.188;2023-03-03T15:27:43;23.98;;;19.02;;
60665;SDS011;59128;44.642;21.188;2023-03-03T15:30:19;25.98;;;20.60;;
60665;SDS011;59128;44.642;21.188;2023-03-03T15:32:48;24.00;;;19.48;;
60665;SDS011;59128;44.642;21.188;2023-03-03T15:35:24;25.40;;;20.00;;
60665;SDS011;59128;44.642;21.188;2023-03-03T15:38:13;27.88;;;20.50;;
60665;SDS011;59128;44.642;21.188;2023-03-03T15:40:56;22.88;;;18.73;;
60665;SDS011;59128;44.642;21.188;2023-03-03T15:43:46;27.90;;;22.03;;
60665;SDS011;59128;44.642;21.188;2023-03-03T15:48:56;39.90;;;30.30;;
60665;SDS011;59128;44.642;21.188;2023-03-03T15:54:11;43.45;;;31.33;;
60665;SDS011;59128;44.642;21.188;2023-03-03T15:59:19;37.53;;;24.47;;
60665;SDS011;59128;44.642;21.188;2023-03-03T16:04:20;36.55;;;22.98;;
60665;SDS011;59128;44.642;21.188;2023-03-03T16:06:58;36.78;;;22.63;;
60665;SDS011;59128;44.642;21.188;2023-03-03T16:17:23;63.33;;;40.85;;
60665;SDS011;59128;44.642;21.188;2023-03-03T16:27:55;61.42;;;37.53;;
60665;SDS011;59128;44.642;21.188;2023-03-03T16:30:05;65.65;;;39.40;;
60665;SDS011;59128;44.642;21.188;2023-03-03T16:38:01;87.00;;;47.25;;
60665;SDS011;59128;44.642;21.188;2023-03-03T16:43:37;132.85;;;71.10;;
60665;SDS011;59128;44.642;21.188;2023-03-03T16:45:37;143.90;;;80.32;;
60665;SDS011;59128;44.642;21.188;2023-03-03T16:58:38;124.38;;;72.50;;
60665;SDS011;59128;44.642;21.188;2023-03-03T17:18:57;95.10;;;68.25;;
60665;SDS011;59128;44.642;21.188;2023-03-03T17:34:20;38.50;;;25.40;;
60665;SDS011;59128;44.642;21.188;2023-03-03T17:42:07;117.45;;;70.38;;
60665;SDS011;59128;44.642;21.188;2023-03-03T17:44:43;140.80;;;86.55;;
60665;SDS011;59128;44.642;21.188;2023-03-03T17:47:12;117.17;;;72.27;;
60665;SDS011;59128;44.642;21.188;2023-03-03T18:05:24;51.05;;;35.50;;
60665;SDS011;59128;44.642;21.188;2023-03-03T18:26:27;69.97;;;51.60;;
60665;SDS011;59128;44.642;21.188;2023-03-03T18:28:49;76.35;;;54.25;;
60665;SDS011;59128;44.642;21.188;2023-03-03T18:31:20;79.47;;;61.75;;
60665;SDS011;59128;44.642;21.188;2023-03-03T18:38:55;52.85;;;36.95;;
60665;SDS011;59128;44.642;21.188;2023-03-03T18:41:22;66.82;;;49.45;;
60665;SDS011;59128;44.642;21.188;2023-03-03T18:49:08;65.38;;;46.80;;
60665;SDS011;59128;44.642;21.188;2023-03-03T18:56:42;122.57;;;89.43;;
60665;SDS011;59128;44.642;21.188;2023-03-03T18:59:08;111.40;;;81.93;;
60665;SDS011;59128;44.642;21.188;2023-03-03T19:01:38;102.18;;;76.85;;
60665;SDS011;59128;44.642;21.188;2023-03-03T19:09:01;52.47;;;35.10;;
60665;SDS011;59128;44.642;21.188;2023-03-03T19:16:37;76.03;;;47.55;;
60665;SDS011;59128;44.642;21.188;2023-03-03T19:19:06;90.72;;;60.55;;
60665;SDS011;59128;44.642;21.188;2023-03-03T19:21:35;87.35;;;60.50;;
60665;SDS011;59128;44.642;21.188;2023-03-03T19:24:02;89.30;;;58.13;;
60665;SDS011;59128;44.642;21.188;2023-03-03T19:26:32;114.55;;;75.45;;
60665;SDS011;59128;44.642;21.188;2023-03-03T19:42:03;93.57;;;62.93;;
60665;SDS011;59128;44.642;21.188;2023-03-03T19:47:01;123.60;;;80.60;;
60665;SDS011;59128;44.642;21.188;2023-03-03T19:57:55;179.30;;;115.95;;
60665;SDS011;59128;44.642;21.188;2023-03-03T20:10:36;100.68;;;71.28;;
60665;SDS011;59128;44.642;21.188;2023-03-03T20:13:11;88.88;;;66.30;;
60665;SDS011;59128;44.642;21.188;2023-03-03T20:25:51;99.65;;;73.97;;
60665;SDS011;59128;44.642;21.188;2023-03-03T20:30:49;109.93;;;77.72;;
60665;SDS011;59128;44.642;21.188;2023-03-03T20:35:53;120.38;;;89.72;;
60665;SDS011;59128;44.642;21.188;2023-03-03T20:38:23;114.40;;;83.82;;
60665;SDS011;59128;44.642;21.188;2023-03-03T20:41:11;112.50;;;81.72;;
60665;SDS011;59128;44.642;21.188;2023-03-03T20:51:26;150.23;;;108.03;;
60665;SDS011;59128;44.642;21.188;2023-03-03T20:56:38;118.47;;;86.18;;
60665;SDS011;59128;44.642;21.188;2023-03-03T21:02:01;99.13;;;71.18;;
60665;SDS011;59128;44.642;21.188;2023-03-03T21:06:48;99.10;;;70.18;;
60665;SDS011;59128;44.642;21.188;2023-03-03T21:11:53;89.38;;;64.32;;
60665;SDS011;59128;44.642;21.188;2023-03-03T21:16:46;93.05;;;64.78;;
60665;SDS011;59128;44.642;21.188;2023-03-03T21:19:21;88.68;;;62.20;;
60665;SDS011;59128;44.642;21.188;2023-03-03T21:21:47;88.13;;;61.67;;
60665;SDS011;59128;44.642;21.188;2023-03-03T21:24:14;90.10;;;61.30;;
60665;SDS011;59128;44.642;21.188;2023-03-03T21:26:51;87.63;;;62.15;;
60665;SDS011;59128;44.642;21.188;2023-03-03T21:29:22;93.18;;;67.20;;
60665;SDS011;59128;44.642;21.188;2023-03-03T21:31:56;96.97;;;66.13;;
60665;SDS011;59128;44.642;21.188;2023-03-03T21:34:24;100.65;;;67.40;;
60665;SDS011;59128;44.642;21.188;2023-03-03T21:36:50;90.05;;;62.30;;